SGEN/ENO METAR and TAF weather

Enter ICAO airport designator
Station Type Date Time Source
SGEN METAR 2019/12/09 21:00 UTC NOAA

SGEN 092100Z 09006KT 9999 SCT033 31/16 Q1009


Station Type Date Time Source
SGEN Decoded METAR 2019/12/09 21:00 UTC NOAA

Encarnacion, Paraguay (SGEN) 27-19S 055-50W 91M
Dec 09, 2019 - 04:00 PM EST / 2019.12.09 2100 UTC
Wind: from the E (090 degrees) at 7 MPH (6 KT):0
Visibility: greater than 7 mile(s):0
Sky conditions: partly cloudy
Temperature: 87 F (31 C)
Dew Point: 60 F (16 C)
Relative Humidity: 40%
Pressure (altimeter): 29.80 in. Hg (1009 hPa)
ob: SGEN 092100Z 09006KT 9999 SCT033 31/16 Q1009
cycle: 21

Station Type Date Time Source
SGEN TAF 2019/12/09 18:00 UTC NOAA

TAF SGEN 091615Z 0918/1018 05006KT 9999 SCT033 TX31/0918Z TN19/1009Z
BECMG 0919/0921 14008KT 9999 BKN027
BECMG 1002/1005 CAVOK

Example: see airport list